sensor_id;sensor_type;location;lat;lon;timestamp;P1;durP1;ratioP1;P2;durP2;ratioP2
71730;SDS011;65964;43.496;3.710;2022-12-18T00:02:18;17.00;;;9.70;;
71730;SDS011;65964;43.496;3.710;2022-12-18T00:04:45;16.85;;;10.05;;
71730;SDS011;65964;43.496;3.710;2022-12-18T00:07:11;19.30;;;9.90;;
71730;SDS011;65964;43.496;3.710;2022-12-18T00:09:37;20.58;;;10.57;;
71730;SDS011;65964;43.496;3.710;2022-12-18T00:12:03;18.27;;;10.35;;
71730;SDS011;65964;43.496;3.710;2022-12-18T00:14:29;18.45;;;10.20;;
71730;SDS011;65964;43.496;3.710;2022-12-18T00:16:55;20.25;;;11.00;;
71730;SDS011;65964;43.496;3.710;2022-12-18T00:19:23;19.15;;;10.75;;
71730;SDS011;65964;43.496;3.710;2022-12-18T00:21:49;21.45;;;11.43;;
71730;SDS011;65964;43.496;3.710;2022-12-18T00:24:15;18.55;;;10.82;;
71730;SDS011;65964;43.496;3.710;2022-12-18T00:26:41;17.58;;;10.50;;
71730;SDS011;65964;43.496;3.710;2022-12-18T00:29:10;19.67;;;11.27;;
71730;SDS011;65964;43.496;3.710;2022-12-18T00:31:36;22.35;;;11.50;;
71730;SDS011;65964;43.496;3.710;2022-12-18T00:34:03;21.02;;;11.05;;
71730;SDS011;65964;43.496;3.710;2022-12-18T00:36:30;19.55;;;11.00;;
71730;SDS011;65964;43.496;3.710;2022-12-18T00:38:57;19.35;;;10.75;;
71730;SDS011;65964;43.496;3.710;2022-12-18T00:41:24;18.52;;;10.88;;
71730;SDS011;65964;43.496;3.710;2022-12-18T00:44:10;17.00;;;9.88;;
71730;SDS011;65964;43.496;3.710;2022-12-18T00:46:36;18.38;;;10.60;;
71730;SDS011;65964;43.496;3.710;2022-12-18T00:49:02;19.17;;;10.38;;
71730;SDS011;65964;43.496;3.710;2022-12-18T00:51:29;24.00;;;11.50;;
71730;SDS011;65964;43.496;3.710;2022-12-18T00:53:55;17.88;;;10.52;;
71730;SDS011;65964;43.496;3.710;2022-12-18T00:56:21;18.42;;;10.18;;
71730;SDS011;65964;43.496;3.710;2022-12-18T00:58:47;16.83;;;9.40;;
71730;SDS011;65964;43.496;3.710;2022-12-18T01:01:14;18.88;;;9.88;;
71730;SDS011;65964;43.496;3.710;2022-12-18T01:03:40;18.02;;;10.05;;
71730;SDS011;65964;43.496;3.710;2022-12-18T01:06:06;19.48;;;10.10;;
71730;SDS011;65964;43.496;3.710;2022-12-18T01:08:33;22.02;;;11.13;;
71730;SDS011;65964;43.496;3.710;2022-12-18T01:10:59;20.35;;;11.00;;
71730;SDS011;65964;43.496;3.710;2022-12-18T01:13:25;23.98;;;11.85;;
71730;SDS011;65964;43.496;3.710;2022-12-18T01:15:51;21.60;;;11.20;;
71730;SDS011;65964;43.496;3.710;2022-12-18T01:18:17;26.60;;;12.90;;
71730;SDS011;65964;43.496;3.710;2022-12-18T01:20:43;24.52;;;12.95;;
71730;SDS011;65964;43.496;3.710;2022-12-18T01:23:09;19.65;;;11.77;;
71730;SDS011;65964;43.496;3.710;2022-12-18T01:25:35;21.55;;;10.93;;
71730;SDS011;65964;43.496;3.710;2022-12-18T01:28:02;19.83;;;10.80;;
71730;SDS011;65964;43.496;3.710;2022-12-18T01:30:28;20.20;;;9.65;;
71730;SDS011;65964;43.496;3.710;2022-12-18T01:32:54;16.27;;;8.35;;
71730;SDS011;65964;43.496;3.710;2022-12-18T01:35:20;17.23;;;8.02;;
71730;SDS011;65964;43.496;3.710;2022-12-18T01:37:46;14.43;;;7.93;;
71730;SDS011;65964;43.496;3.710;2022-12-18T01:40:12;12.82;;;7.00;;
71730;SDS011;65964;43.496;3.710;2022-12-18T01:42:38;11.77;;;6.85;;
71730;SDS011;65964;43.496;3.710;2022-12-18T01:47:39;12.52;;;6.85;;
71730;SDS011;65964;43.496;3.710;2022-12-18T01:52:39;10.98;;;6.20;;
71730;SDS011;65964;43.496;3.710;2022-12-18T01:55:06;11.82;;;6.28;;
71730;SDS011;65964;43.496;3.710;2022-12-18T01:57:33;12.02;;;6.32;;
71730;SDS011;65964;43.496;3.710;2022-12-18T02:00:00;12.13;;;6.28;;
71730;SDS011;65964;43.496;3.710;2022-12-18T02:02:28;11.90;;;6.45;;
71730;SDS011;65964;43.496;3.710;2022-12-18T02:04:54;10.68;;;6.20;;
71730;SDS011;65964;43.496;3.710;2022-12-18T02:13:02;10.18;;;6.18;;
71730;SDS011;65964;43.496;3.710;2022-12-18T02:15:36;12.63;;;5.53;;
71730;SDS011;65964;43.496;3.710;2022-12-18T02:18:08;9.52;;;5.78;;
71730;SDS011;65964;43.496;3.710;2022-12-18T02:20:47;10.48;;;5.93;;
71730;SDS011;65964;43.496;3.710;2022-12-18T02:25:56;11.73;;;6.13;;
71730;SDS011;65964;43.496;3.710;2022-12-18T02:28:27;10.48;;;5.88;;
71730;SDS011;65964;43.496;3.710;2022-12-18T02:30:54;11.80;;;6.15;;
71730;SDS011;65964;43.496;3.710;2022-12-18T02:33:25;10.55;;;6.43;;
71730;SDS011;65964;43.496;3.710;2022-12-18T02:35:52;12.50;;;6.72;;
71730;SDS011;65964;43.496;3.710;2022-12-18T02:38:19;11.55;;;6.57;;
71730;SDS011;65964;43.496;3.710;2022-12-18T02:40:46;11.50;;;6.85;;
71730;SDS011;65964;43.496;3.710;2022-12-18T02:43:13;11.85;;;6.80;;
71730;SDS011;65964;43.496;3.710;2022-12-18T02:45:52;10.98;;;6.45;;
71730;SDS011;65964;43.496;3.710;2022-12-18T02:48:22;12.93;;;6.85;;
71730;SDS011;65964;43.496;3.710;2022-12-18T02:50:54;12.73;;;7.25;;
71730;SDS011;65964;43.496;3.710;2022-12-18T02:56:09;13.73;;;6.85;;
71730;SDS011;65964;43.496;3.710;2022-12-18T03:01:38;11.70;;;6.68;;
71730;SDS011;65964;43.496;3.710;2022-12-18T03:04:15;13.38;;;6.88;;
71730;SDS011;65964;43.496;3.710;2022-12-18T03:06:46;10.93;;;6.43;;
71730;SDS011;65964;43.496;3.710;2022-12-18T03:09:14;13.10;;;7.40;;
71730;SDS011;65964;43.496;3.710;2022-12-18T03:11:45;12.70;;;6.85;;
71730;SDS011;65964;43.496;3.710;2022-12-18T03:14:31;12.27;;;6.75;;
71730;SDS011;65964;43.496;3.710;2022-12-18T03:17:02;12.77;;;7.38;;
71730;SDS011;65964;43.496;3.710;2022-12-18T03:19:29;13.70;;;7.45;;
71730;SDS011;65964;43.496;3.710;2022-12-18T03:21:57;11.93;;;6.85;;
71730;SDS011;65964;43.496;3.710;2022-12-18T03:24:26;14.13;;;7.18;;
71730;SDS011;65964;43.496;3.710;2022-12-18T03:27:00;15.27;;;7.80;;
71730;SDS011;65964;43.496;3.710;2022-12-18T03:29:34;12.27;;;6.85;;
71730;SDS011;65964;43.496;3.710;2022-12-18T03:32:03;14.20;;;6.35;;
71730;SDS011;65964;43.496;3.710;2022-12-18T03:34:32;15.07;;;6.97;;
71730;SDS011;65964;43.496;3.710;2022-12-18T03:36:59;16.27;;;8.13;;
71730;SDS011;65964;43.496;3.710;2022-12-18T03:39:28;15.00;;;7.07;;
71730;SDS011;65964;43.496;3.710;2022-12-18T03:42:03;14.25;;;7.07;;
71730;SDS011;65964;43.496;3.710;2022-12-18T03:52:30;8.30;;;5.25;;
71730;SDS011;65964;43.496;3.710;2022-12-18T03:54:58;10.35;;;5.45;;
71730;SDS011;65964;43.496;3.710;2022-12-18T03:57:26;11.13;;;5.95;;
71730;SDS011;65964;43.496;3.710;2022-12-18T03:59:56;9.40;;;5.22;;
71730;SDS011;65964;43.496;3.710;2022-12-18T04:02:24;9.60;;;5.50;;
71730;SDS011;65964;43.496;3.710;2022-12-18T04:04:51;11.43;;;5.95;;
71730;SDS011;65964;43.496;3.710;2022-12-18T04:07:18;15.90;;;7.78;;
71730;SDS011;65964;43.496;3.710;2022-12-18T04:09:46;12.38;;;6.38;;
71730;SDS011;65964;43.496;3.710;2022-12-18T04:12:13;9.77;;;5.50;;
71730;SDS011;65964;43.496;3.710;2022-12-18T04:14:39;10.05;;;5.50;;
71730;SDS011;65964;43.496;3.710;2022-12-18T04:17:05;11.30;;;5.40;;
71730;SDS011;65964;43.496;3.710;2022-12-18T04:19:31;11.18;;;5.97;;
71730;SDS011;65964;43.496;3.710;2022-12-18T04:21:57;13.27;;;5.78;;
71730;SDS011;65964;43.496;3.710;2022-12-18T04:24:23;10.38;;;5.47;;
71730;SDS011;65964;43.496;3.710;2022-12-18T04:26:49;9.45;;;5.00;;
71730;SDS011;65964;43.496;3.710;2022-12-18T04:29:15;12.32;;;5.95;;
71730;SDS011;65964;43.496;3.710;2022-12-18T04:31:41;10.95;;;6.22;;
71730;SDS011;65964;43.496;3.710;2022-12-18T04:34:07;12.10;;;7.30;;
71730;SDS011;65964;43.496;3.710;2022-12-18T04:36:33;11.57;;;6.60;;
71730;SDS011;65964;43.496;3.710;2022-12-18T04:38:59;9.95;;;6.00;;
71730;SDS011;65964;43.496;3.710;2022-12-18T04:41:25;10.32;;;5.97;;
71730;SDS011;65964;43.496;3.710;2022-12-18T04:43:51;11.68;;;6.57;;
71730;SDS011;65964;43.496;3.710;2022-12-18T04:46:17;10.75;;;5.68;;
71730;SDS011;65964;43.496;3.710;2022-12-18T04:48:45;10.23;;;5.78;;
71730;SDS011;65964;43.496;3.710;2022-12-18T04:51:11;10.82;;;6.00;;
71730;SDS011;65964;43.496;3.710;2022-12-18T04:53:38;9.52;;;5.53;;
71730;SDS011;65964;43.496;3.710;2022-12-18T04:56:08;12.70;;;5.88;;
71730;SDS011;65964;43.496;3.710;2022-12-18T04:58:35;10.05;;;5.35;;
71730;SDS011;65964;43.496;3.710;2022-12-18T05:01:02;10.55;;;5.38;;
71730;SDS011;65964;43.496;3.710;2022-12-18T05:03:29;9.95;;;5.70;;
71730;SDS011;65964;43.496;3.710;2022-12-18T05:05:55;12.20;;;6.90;;
71730;SDS011;65964;43.496;3.710;2022-12-18T05:08:21;10.13;;;5.90;;
71730;SDS011;65964;43.496;3.710;2022-12-18T05:10:47;11.02;;;5.60;;
71730;SDS011;65964;43.496;3.710;2022-12-18T05:13:13;9.43;;;5.20;;
71730;SDS011;65964;43.496;3.710;2022-12-18T05:15:39;10.77;;;5.32;;
71730;SDS011;65964;43.496;3.710;2022-12-18T05:18:06;9.93;;;5.25;;
71730;SDS011;65964;43.496;3.710;2022-12-18T05:20:33;10.55;;;4.82;;
71730;SDS011;65964;43.496;3.710;2022-12-18T05:22:59;11.00;;;5.50;;
71730;SDS011;65964;43.496;3.710;2022-12-18T05:25:25;9.63;;;5.65;;
71730;SDS011;65964;43.496;3.710;2022-12-18T05:27:51;9.20;;;5.28;;
71730;SDS011;65964;43.496;3.710;2022-12-18T05:30:17;11.00;;;5.90;;
71730;SDS011;65964;43.496;3.710;2022-12-18T05:32:43;11.35;;;5.60;;
71730;SDS011;65964;43.496;3.710;2022-12-18T05:35:09;9.55;;;5.60;;
71730;SDS011;65964;43.496;3.710;2022-12-18T05:37:36;9.07;;;5.53;;
71730;SDS011;65964;43.496;3.710;2022-12-18T05:40:03;12.00;;;5.53;;
71730;SDS011;65964;43.496;3.710;2022-12-18T05:42:29;11.55;;;5.75;;
71730;SDS011;65964;43.496;3.710;2022-12-18T05:44:55;10.35;;;6.10;;
71730;SDS011;65964;43.496;3.710;2022-12-18T05:47:22;11.13;;;6.00;;
71730;SDS011;65964;43.496;3.710;2022-12-18T05:49:48;10.48;;;5.90;;
71730;SDS011;65964;43.496;3.710;2022-12-18T05:52:14;10.48;;;5.68;;
71730;SDS011;65964;43.496;3.710;2022-12-18T05:54:40;10.75;;;5.68;;
71730;SDS011;65964;43.496;3.710;2022-12-18T05:57:06;15.20;;;6.07;;
71730;SDS011;65964;43.496;3.710;2022-12-18T05:59:32;12.15;;;6.30;;
71730;SDS011;65964;43.496;3.710;2022-12-18T06:01:58;10.38;;;6.15;;
71730;SDS011;65964;43.496;3.710;2022-12-18T06:04:26;9.90;;;5.60;;
71730;SDS011;65964;43.496;3.710;2022-12-18T06:06:52;9.35;;;5.50;;
71730;SDS011;65964;43.496;3.710;2022-12-18T06:09:18;12.27;;;6.13;;
71730;SDS011;65964;43.496;3.710;2022-12-18T06:11:44;12.27;;;6.72;;
71730;SDS011;65964;43.496;3.710;2022-12-18T06:14:10;12.60;;;6.65;;
71730;SDS011;65964;43.496;3.710;2022-12-18T06:16:36;10.88;;;6.05;;
71730;SDS011;65964;43.496;3.710;2022-12-18T06:19:04;9.82;;;5.45;;
71730;SDS011;65964;43.496;3.710;2022-12-18T06:21:30;10.70;;;5.93;;
71730;SDS011;65964;43.496;3.710;2022-12-18T06:23:57;11.32;;;5.80;;
71730;SDS011;65964;43.496;3.710;2022-12-18T06:26:23;11.10;;;5.55;;
71730;SDS011;65964;43.496;3.710;2022-12-18T06:28:49;11.68;;;6.22;;
71730;SDS011;65964;43.496;3.710;2022-12-18T06:31:15;10.93;;;5.60;;
71730;SDS011;65964;43.496;3.710;2022-12-18T06:33:41;10.65;;;5.50;;
71730;SDS011;65964;43.496;3.710;2022-12-18T06:36:08;10.10;;;5.50;;
71730;SDS011;65964;43.496;3.710;2022-12-18T06:38:35;9.52;;;5.20;;
71730;SDS011;65964;43.496;3.710;2022-12-18T06:41:11;10.43;;;5.47;;
71730;SDS011;65964;43.496;3.710;2022-12-18T06:43:38;9.30;;;5.32;;
71730;SDS011;65964;43.496;3.710;2022-12-18T06:46:04;9.38;;;5.13;;
71730;SDS011;65964;43.496;3.710;2022-12-18T06:48:30;10.45;;;5.18;;
71730;SDS011;65964;43.496;3.710;2022-12-18T06:50:56;9.60;;;5.38;;
71730;SDS011;65964;43.496;3.710;2022-12-18T06:53:23;11.15;;;5.68;;
71730;SDS011;65964;43.496;3.710;2022-12-18T06:55:49;8.45;;;4.80;;
71730;SDS011;65964;43.496;3.710;2022-12-18T06:58:15;10.07;;;5.15;;
71730;SDS011;65964;43.496;3.710;2022-12-18T07:00:41;9.25;;;4.50;;
71730;SDS011;65964;43.496;3.710;2022-12-18T07:03:07;9.10;;;4.47;;
71730;SDS011;65964;43.496;3.710;2022-12-18T07:05:33;7.65;;;4.05;;
71730;SDS011;65964;43.496;3.710;2022-12-18T07:07:59;11.38;;;5.15;;
71730;SDS011;65964;43.496;3.710;2022-12-18T07:10:25;9.65;;;5.15;;
71730;SDS011;65964;43.496;3.710;2022-12-18T07:12:52;10.88;;;7.82;;
71730;SDS011;65964;43.496;3.710;2022-12-18T07:15:18;9.85;;;6.20;;
71730;SDS011;65964;43.496;3.710;2022-12-18T07:17:44;15.35;;;11.20;;
71730;SDS011;65964;43.496;3.710;2022-12-18T07:20:10;15.98;;;9.90;;
71730;SDS011;65964;43.496;3.710;2022-12-18T07:22:36;12.82;;;8.10;;
71730;SDS011;65964;43.496;3.710;2022-12-18T07:25:02;14.85;;;9.75;;
71730;SDS011;65964;43.496;3.710;2022-12-18T07:27:28;14.82;;;8.68;;
71730;SDS011;65964;43.496;3.710;2022-12-18T07:29:54;11.13;;;5.68;;
71730;SDS011;65964;43.496;3.710;2022-12-18T07:32:20;10.90;;;6.43;;
71730;SDS011;65964;43.496;3.710;2022-12-18T07:34:46;13.55;;;5.25;;
71730;SDS011;65964;43.496;3.710;2022-12-18T07:37:12;9.77;;;6.00;;
71730;SDS011;65964;43.496;3.710;2022-12-18T07:39:38;11.52;;;6.72;;
71730;SDS011;65964;43.496;3.710;2022-12-18T07:42:04;12.82;;;6.75;;
71730;SDS011;65964;43.496;3.710;2022-12-18T07:44:49;16.25;;;7.93;;
71730;SDS011;65964;43.496;3.710;2022-12-18T07:47:15;24.60;;;11.77;;
71730;SDS011;65964;43.496;3.710;2022-12-18T07:49:41;16.80;;;9.38;;
71730;SDS011;65964;43.496;3.710;2022-12-18T07:52:07;15.05;;;7.95;;
71730;SDS011;65964;43.496;3.710;2022-12-18T07:54:34;10.15;;;5.07;;
71730;SDS011;65964;43.496;3.710;2022-12-18T07:57:00;11.88;;;6.10;;
71730;SDS011;65964;43.496;3.710;2022-12-18T07:59:26;12.68;;;7.15;;
71730;SDS011;65964;43.496;3.710;2022-12-18T08:01:52;9.55;;;5.90;;
71730;SDS011;65964;43.496;3.710;2022-12-18T08:04:18;11.18;;;5.85;;
71730;SDS011;65964;43.496;3.710;2022-12-18T08:06:44;12.02;;;7.40;;
71730;SDS011;65964;43.496;3.710;2022-12-18T08:09:10;13.07;;;7.32;;
71730;SDS011;65964;43.496;3.710;2022-12-18T08:11:36;14.50;;;8.88;;
71730;SDS011;65964;43.496;3.710;2022-12-18T08:14:03;9.15;;;4.93;;
71730;SDS011;65964;43.496;3.710;2022-12-18T08:16:29;10.48;;;6.50;;
71730;SDS011;65964;43.496;3.710;2022-12-18T08:18:55;18.45;;;10.88;;
71730;SDS011;65964;43.496;3.710;2022-12-18T08:21:23;11.82;;;7.95;;
71730;SDS011;65964;43.496;3.710;2022-12-18T08:23:50;10.32;;;5.88;;
71730;SDS011;65964;43.496;3.710;2022-12-18T08:26:16;16.45;;;7.03;;
71730;SDS011;65964;43.496;3.710;2022-12-18T08:28:42;14.65;;;6.53;;
71730;SDS011;65964;43.496;3.710;2022-12-18T08:31:09;10.38;;;6.22;;
71730;SDS011;65964;43.496;3.710;2022-12-18T08:33:35;11.80;;;6.47;;
71730;SDS011;65964;43.496;3.710;2022-12-18T08:36:05;14.85;;;9.52;;
71730;SDS011;65964;43.496;3.710;2022-12-18T08:38:31;20.33;;;9.95;;
71730;SDS011;65964;43.496;3.710;2022-12-18T08:41:01;26.05;;;13.57;;
71730;SDS011;65964;43.496;3.710;2022-12-18T08:43:28;9.35;;;5.55;;
71730;SDS011;65964;43.496;3.710;2022-12-18T08:46:16;10.98;;;5.93;;
71730;SDS011;65964;43.496;3.710;2022-12-18T08:48:42;11.73;;;5.82;;
71730;SDS011;65964;43.496;3.710;2022-12-18T08:51:08;10.65;;;6.57;;
71730;SDS011;65964;43.496;3.710;2022-12-18T08:53:35;11.82;;;6.05;;
71730;SDS011;65964;43.496;3.710;2022-12-18T08:56:02;11.43;;;6.10;;
71730;SDS011;65964;43.496;3.710;2022-12-18T08:58:28;14.40;;;7.28;;
71730;SDS011;65964;43.496;3.710;2022-12-18T09:00:54;11.60;;;5.88;;
71730;SDS011;65964;43.496;3.710;2022-12-18T09:03:25;16.13;;;8.20;;
71730;SDS011;65964;43.496;3.710;2022-12-18T09:05:51;16.75;;;9.23;;
71730;SDS011;65964;43.496;3.710;2022-12-18T09:08:17;18.88;;;8.88;;
71730;SDS011;65964;43.496;3.710;2022-12-18T09:10:43;14.57;;;7.00;;
71730;SDS011;65964;43.496;3.710;2022-12-18T09:13:10;17.52;;;9.30;;
71730;SDS011;65964;43.496;3.710;2022-12-18T09:15:55;11.77;;;6.75;;
71730;SDS011;65964;43.496;3.710;2022-12-18T09:18:21;13.23;;;6.65;;
71730;SDS011;65964;43.496;3.710;2022-12-18T09:20:48;15.10;;;8.48;;
71730;SDS011;65964;43.496;3.710;2022-12-18T09:23:15;10.98;;;5.93;;
71730;SDS011;65964;43.496;3.710;2022-12-18T09:25:41;13.63;;;6.80;;
71730;SDS011;65964;43.496;3.710;2022-12-18T09:28:11;13.63;;;7.20;;
71730;SDS011;65964;43.496;3.710;2022-12-18T09:30:38;12.93;;;5.97;;
71730;SDS011;65964;43.496;3.710;2022-12-18T09:33:05;11.90;;;5.53;;
71730;SDS011;65964;43.496;3.710;2022-12-18T09:35:31;10.23;;;5.25;;
71730;SDS011;65964;43.496;3.710;2022-12-18T09:37:57;14.07;;;7.57;;
71730;SDS011;65964;43.496;3.710;2022-12-18T09:40:24;15.32;;;7.70;;
71730;SDS011;65964;43.496;3.710;2022-12-18T09:42:55;17.98;;;10.98;;
71730;SDS011;65964;43.496;3.710;2022-12-18T09:45:23;11.23;;;6.13;;
71730;SDS011;65964;43.496;3.710;2022-12-18T09:47:49;13.43;;;6.95;;
71730;SDS011;65964;43.496;3.710;2022-12-18T09:52:54;13.52;;;8.85;;
71730;SDS011;65964;43.496;3.710;2022-12-18T09:57:52;10.50;;;6.30;;
71730;SDS011;65964;43.496;3.710;2022-12-18T10:00:20;11.75;;;5.93;;
71730;SDS011;65964;43.496;3.710;2022-12-18T10:02:46;16.23;;;6.55;;
71730;SDS011;65964;43.496;3.710;2022-12-18T10:05:16;15.02;;;6.07;;
71730;SDS011;65964;43.496;3.710;2022-12-18T10:07:46;12.18;;;5.93;;
71730;SDS011;65964;43.496;3.710;2022-12-18T10:12:50;12.68;;;6.63;;
71730;SDS011;65964;43.496;3.710;2022-12-18T10:15:36;11.25;;;6.35;;
71730;SDS011;65964;43.496;3.710;2022-12-18T10:18:10;17.83;;;7.28;;
71730;SDS011;65964;43.496;3.710;2022-12-18T10:25:50;34.95;;;19.02;;
71730;SDS011;65964;43.496;3.710;2022-12-18T10:28:17;26.73;;;14.00;;
71730;SDS011;65964;43.496;3.710;2022-12-18T10:30:44;15.57;;;8.48;;
71730;SDS011;65964;43.496;3.710;2022-12-18T10:33:14;15.90;;;8.48;;
71730;SDS011;65964;43.496;3.710;2022-12-18T10:35:41;15.90;;;10.30;;
71730;SDS011;65964;43.496;3.710;2022-12-18T10:43:39;13.80;;;8.00;;
71730;SDS011;65964;43.496;3.710;2022-12-18T10:51:07;19.33;;;11.20;;
71730;SDS011;65964;43.496;3.710;2022-12-18T10:53:34;17.92;;;11.20;;
71730;SDS011;65964;43.496;3.710;2022-12-18T10:56:00;17.08;;;8.93;;
71730;SDS011;65964;43.496;3.710;2022-12-18T10:58:35;10.68;;;6.63;;
71730;SDS011;65964;43.496;3.710;2022-12-18T11:03:31;13.45;;;6.20;;
71730;SDS011;65964;43.496;3.710;2022-12-18T11:06:16;11.57;;;6.40;;
71730;SDS011;65964;43.496;3.710;2022-12-18T11:08:43;13.07;;;6.45;;
71730;SDS011;65964;43.496;3.710;2022-12-18T11:11:19;13.15;;;7.28;;
71730;SDS011;65964;43.496;3.710;2022-12-18T11:14:02;13.18;;;7.70;;
71730;SDS011;65964;43.496;3.710;2022-12-18T11:16:29;14.40;;;7.40;;
71730;SDS011;65964;43.496;3.710;2022-12-18T11:19:08;16.88;;;8.77;;
71730;SDS011;65964;43.496;3.710;2022-12-18T11:21:38;18.77;;;10.85;;
71730;SDS011;65964;43.496;3.710;2022-12-18T11:24:07;21.05;;;11.25;;
71730;SDS011;65964;43.496;3.710;2022-12-18T11:26:41;25.25;;;15.07;;
71730;SDS011;65964;43.496;3.710;2022-12-18T11:29:09;42.70;;;22.95;;
71730;SDS011;65964;43.496;3.710;2022-12-18T11:31:36;21.67;;;13.50;;
71730;SDS011;65964;43.496;3.710;2022-12-18T11:34:04;32.50;;;20.33;;
71730;SDS011;65964;43.496;3.710;2022-12-18T11:36:36;29.02;;;17.70;;
71730;SDS011;65964;43.496;3.710;2022-12-18T11:39:16;30.30;;;17.17;;
71730;SDS011;65964;43.496;3.710;2022-12-18T11:41:53;43.08;;;27.08;;
71730;SDS011;65964;43.496;3.710;2022-12-18T11:44:52;29.75;;;18.77;;
71730;SDS011;65964;43.496;3.710;2022-12-18T11:47:26;29.37;;;19.47;;
71730;SDS011;65964;43.496;3.710;2022-12-18T11:49:55;30.52;;;20.17;;
71730;SDS011;65964;43.496;3.710;2022-12-18T11:52:33;31.75;;;21.05;;
71730;SDS011;65964;43.496;3.710;2022-12-18T11:55:00;22.15;;;13.80;;
71730;SDS011;65964;43.496;3.710;2022-12-18T11:57:38;20.77;;;11.77;;
71730;SDS011;65964;43.496;3.710;2022-12-18T12:00:25;13.85;;;8.20;;
71730;SDS011;65964;43.496;3.710;2022-12-18T12:05:39;33.03;;;18.35;;
71730;SDS011;65964;43.496;3.710;2022-12-18T12:18:36;28.42;;;15.15;;
71730;SDS011;65964;43.496;3.710;2022-12-18T12:26:29;33.92;;;18.95;;
71730;SDS011;65964;43.496;3.710;2022-12-18T12:29:09;32.55;;;18.88;;
71730;SDS011;65964;43.496;3.710;2022-12-18T12:36:40;34.70;;;19.88;;
71730;SDS011;65964;43.496;3.710;2022-12-18T12:39:08;46.03;;;25.30;;
71730;SDS011;65964;43.496;3.710;2022-12-18T12:41:35;42.20;;;23.08;;
71730;SDS011;65964;43.496;3.710;2022-12-18T12:44:26;27.00;;;16.30;;
71730;SDS011;65964;43.496;3.710;2022-12-18T12:46:55;30.00;;;16.88;;
71730;SDS011;65964;43.496;3.710;2022-12-18T12:49:22;24.42;;;13.75;;
71730;SDS011;65964;43.496;3.710;2022-12-18T12:54:46;19.25;;;10.98;;
71730;SDS011;65964;43.496;3.710;2022-12-18T13:02:19;16.55;;;10.18;;
71730;SDS011;65964;43.496;3.710;2022-12-18T13:04:53;16.05;;;9.00;;
71730;SDS011;65964;43.496;3.710;2022-12-18T13:18:05;18.95;;;10.63;;
71730;SDS011;65964;43.496;3.710;2022-12-18T13:20:37;19.98;;;10.43;;
71730;SDS011;65964;43.496;3.710;2022-12-18T13:26:33;17.75;;;10.20;;
71730;SDS011;65964;43.496;3.710;2022-12-18T13:36:42;23.38;;;13.05;;
71730;SDS011;65964;43.496;3.710;2022-12-18T13:41:34;23.38;;;11.25;;
71730;SDS011;65964;43.496;3.710;2022-12-18T13:44:11;21.23;;;10.43;;
71730;SDS011;65964;43.496;3.710;2022-12-18T13:46:44;22.45;;;10.60;;
71730;SDS011;65964;43.496;3.710;2022-12-18T13:51:40;15.50;;;10.05;;
71730;SDS011;65964;43.496;3.710;2022-12-18T13:54:21;17.75;;;10.10;;
71730;SDS011;65964;43.496;3.710;2022-12-18T13:56:48;15.73;;;9.73;;
71730;SDS011;65964;43.496;3.710;2022-12-18T13:59:22;18.52;;;10.15;;
71730;SDS011;65964;43.496;3.710;2022-12-18T14:04:18;18.25;;;10.25;;
71730;SDS011;65964;43.496;3.710;2022-12-18T14:06:45;22.38;;;13.45;;
71730;SDS011;65964;43.496;3.710;2022-12-18T14:09:20;17.92;;;11.00;;
71730;SDS011;65964;43.496;3.710;2022-12-18T14:11:48;19.98;;;10.32;;
71730;SDS011;65964;43.496;3.710;2022-12-18T14:14:15;23.27;;;11.02;;
71730;SDS011;65964;43.496;3.710;2022-12-18T14:16:42;23.85;;;11.77;;
71730;SDS011;65964;43.496;3.710;2022-12-18T14:19:10;22.42;;;12.40;;
71730;SDS011;65964;43.496;3.710;2022-12-18T14:21:38;21.00;;;11.90;;
71730;SDS011;65964;43.496;3.710;2022-12-18T14:24:18;25.13;;;12.23;;
71730;SDS011;65964;43.496;3.710;2022-12-18T14:26:44;22.20;;;11.07;;
71730;SDS011;65964;43.496;3.710;2022-12-18T14:32:11;23.60;;;11.77;;
71730;SDS011;65964;43.496;3.710;2022-12-18T14:34:39;20.92;;;11.57;;
71730;SDS011;65964;43.496;3.710;2022-12-18T14:37:05;22.17;;;10.65;;
71730;SDS011;65964;43.496;3.710;2022-12-18T14:39:31;23.83;;;10.90;;
71730;SDS011;65964;43.496;3.710;2022-12-18T14:41:57;19.05;;;10.88;;
71730;SDS011;65964;43.496;3.710;2022-12-18T14:44:23;19.83;;;11.40;;
71730;SDS011;65964;43.496;3.710;2022-12-18T14:46:50;24.73;;;11.35;;
71730;SDS011;65964;43.496;3.710;2022-12-18T14:49:32;20.70;;;11.50;;
71730;SDS011;65964;43.496;3.710;2022-12-18T14:51:59;19.52;;;11.45;;
71730;SDS011;65964;43.496;3.710;2022-12-18T14:54:27;21.75;;;11.73;;
71730;SDS011;65964;43.496;3.710;2022-12-18T14:57:00;20.23;;;12.45;;
71730;SDS011;65964;43.496;3.710;2022-12-18T14:59:27;24.55;;;12.48;;
71730;SDS011;65964;43.496;3.710;2022-12-18T15:04:39;22.02;;;12.35;;
71730;SDS011;65964;43.496;3.710;2022-12-18T15:17:00;23.33;;;11.77;;
71730;SDS011;65964;43.496;3.710;2022-12-18T15:19:37;23.67;;;11.80;;
71730;SDS011;65964;43.496;3.710;2022-12-18T15:22:04;23.05;;;11.35;;
71730;SDS011;65964;43.496;3.710;2022-12-18T15:24:31;22.30;;;12.02;;
71730;SDS011;65964;43.496;3.710;2022-12-18T15:26:58;18.70;;;10.57;;
71730;SDS011;65964;43.496;3.710;2022-12-18T15:29:24;19.70;;;10.85;;
71730;SDS011;65964;43.496;3.710;2022-12-18T15:32:04;22.45;;;11.43;;
71730;SDS011;65964;43.496;3.710;2022-12-18T15:34:30;18.80;;;11.80;;
71730;SDS011;65964;43.496;3.710;2022-12-18T15:36:57;29.02;;;15.73;;
71730;SDS011;65964;43.496;3.710;2022-12-18T15:39:24;29.20;;;15.75;;
71730;SDS011;65964;43.496;3.710;2022-12-18T15:41:50;29.83;;;15.85;;
71730;SDS011;65964;43.496;3.710;2022-12-18T15:44:35;31.00;;;17.50;;
71730;SDS011;65964;43.496;3.710;2022-12-18T15:47:01;21.45;;;13.57;;
71730;SDS011;65964;43.496;3.710;2022-12-18T15:49:27;29.58;;;16.60;;
71730;SDS011;65964;43.496;3.710;2022-12-18T15:51:54;23.25;;;14.40;;
71730;SDS011;65964;43.496;3.710;2022-12-18T15:54:21;28.48;;;16.33;;
71730;SDS011;65964;43.496;3.710;2022-12-18T15:57:09;61.22;;;32.53;;
71730;SDS011;65964;43.496;3.710;2022-12-18T15:59:52;40.13;;;21.02;;
71730;SDS011;65964;43.496;3.710;2022-12-18T16:02:18;62.97;;;32.83;;
71730;SDS011;65964;43.496;3.710;2022-12-18T16:04:45;45.22;;;28.02;;
71730;SDS011;65964;43.496;3.710;2022-12-18T16:07:11;54.55;;;30.70;;
71730;SDS011;65964;43.496;3.710;2022-12-18T16:09:37;48.60;;;28.20;;
71730;SDS011;65964;43.496;3.710;2022-12-18T16:12:04;41.28;;;24.52;;
71730;SDS011;65964;43.496;3.710;2022-12-18T16:14:31;46.28;;;25.20;;
71730;SDS011;65964;43.496;3.710;2022-12-18T16:16:58;41.97;;;24.10;;
71730;SDS011;65964;43.496;3.710;2022-12-18T16:19:25;40.05;;;22.02;;
71730;SDS011;65964;43.496;3.710;2022-12-18T16:21:52;33.28;;;19.45;;
71730;SDS011;65964;43.496;3.710;2022-12-18T16:24:19;44.65;;;23.90;;
71730;SDS011;65964;43.496;3.710;2022-12-18T16:26:49;56.03;;;27.33;;
71730;SDS011;65964;43.496;3.710;2022-12-18T16:29:16;61.47;;;33.47;;
71730;SDS011;65964;43.496;3.710;2022-12-18T16:31:42;57.75;;;31.67;;
71730;SDS011;65964;43.496;3.710;2022-12-18T16:34:12;57.17;;;32.95;;
71730;SDS011;65964;43.496;3.710;2022-12-18T16:36:38;39.42;;;26.52;;
71730;SDS011;65964;43.496;3.710;2022-12-18T16:39:05;69.38;;;37.55;;
71730;SDS011;65964;43.496;3.710;2022-12-18T16:41:31;36.00;;;22.40;;
71730;SDS011;65964;43.496;3.710;2022-12-18T16:43:58;33.63;;;17.50;;
71730;SDS011;65964;43.496;3.710;2022-12-18T16:46:24;30.40;;;16.80;;
71730;SDS011;65964;43.496;3.710;2022-12-18T16:48:50;31.60;;;16.55;;